Portada
METAR-TAF:

METAR-TAF

Aeroports :

Culiacán, Mèxic

latitud: 24-49N, longitud: 107-24W, altitud: 39 m

Observació

L'informe es va fer fa 3 hores i 42 minuts, a les 04:43 UTC
Vent 5 kt del Nord-Oest
Temperatura 21°C
Humitat 26%
Pressió 1012 hPa
Visibilitat: 16.1 km
Escasses núvols a una alçada de 2000 ft

METAR: MMCL 280443Z 31005KT 10SM FEW020 21/01 A2989 RMK 8/500

Hora: 01:25 (08:25 UTC)

Pronòstic

L'informe es va fer fa 6 hores i 15 minuts, a les 02:10 UTC
Pronòstic vàlid del 28 a les 06 UTC al 29 a les 06 UTC
Vent 5 kt del Oest/Nord-Oest
Visibilitat: 10 km
Cel clar
A partir de les 28 a les 1900 UTC
Vent 12 kt del Oest/Sud-Oest
Visibilitat: 10 km
Cel clar
A partir de les 29 a les 0200 UTC
Vent 5 kt del Oest/Nord-Oest
Visibilitat: 10 km
Cel clar

TAF: MMCL 280210Z 2806/2906 30005KT P6SM SKC FM281900 25012KT P6SM SKC FM290200 30005KT P6SM SKC

Observacions i pronòstics meteorològics de més de 4000 aeroports (METAR i TAF).

Les estacions disponibles són els punts grocs i vermells al mapa.

Posi el ratolí al punt desitjat per veure el nom de l'estació.

Feu clic per veure les observacions i els pronòstics meteorològics.

Per canviar el mapa: feu clic els botons verds amb una creu de color negre per apropar; al botó verd amb un guió per allunyar la imatge; o en les fletxes verdes per a mapes adjacents.


METAR-TAF: